createdAt,value
2023-02-03T00:13:17.132Z,20.65
2023-02-03T00:28:19.075Z,21.80
2023-02-03T00:43:21.680Z,20.83
2023-02-03T00:58:24.803Z,18.05
2023-02-03T01:13:26.736Z,14.73
2023-02-03T01:28:28.713Z,17.38
2023-02-03T01:43:33.803Z,16.38
2023-02-03T01:58:39.923Z,15.30
2023-02-03T02:13:44.100Z,19.90
2023-02-03T02:29:13.587Z,13.00
2023-02-03T02:44:37.791Z,12.05
2023-02-03T02:59:39.749Z,14.10
2023-02-03T03:14:45.550Z,16.13
2023-02-03T03:29:53.553Z,17.45
2023-02-03T03:45:03.035Z,14.32
2023-02-03T04:00:09.725Z,11.35
2023-02-03T04:15:11.647Z,11.57
2023-02-03T04:30:14.090Z,19.98
2023-02-03T04:45:16.073Z,10.18
2023-02-03T05:00:18.349Z,9.00
2023-02-03T05:15:20.300Z,8.98
2023-02-03T05:30:22.272Z,11.85
2023-02-03T05:45:24.276Z,12.45
2023-02-03T06:00:26.610Z,11.55
2023-02-03T06:15:28.771Z,12.60
2023-02-03T06:30:31.111Z,11.02
2023-02-03T06:45:34.683Z,13.50
2023-02-03T07:00:36.687Z,13.73
2023-02-03T07:15:39.107Z,11.88
2023-02-03T07:30:41.313Z,11.50
2023-02-03T07:45:43.528Z,8.38
2023-02-03T08:00:45.567Z,11.70
2023-02-03T08:15:48.309Z,10.77
2023-02-03T08:30:50.787Z,8.63
2023-02-03T08:45:54.767Z,11.48
2023-02-03T09:00:56.935Z,9.95
2023-02-03T09:16:01.168Z,11.30
2023-02-03T09:31:04.668Z,9.48
2023-02-03T09:46:12.903Z,9.13
2023-02-03T10:16:36.024Z,13.38
2023-02-03T10:31:39.129Z,7.85
2023-02-03T10:46:43.285Z,8.02
2023-02-03T11:01:49.151Z,10.95
2023-02-03T11:16:51.165Z,11.27
2023-02-03T11:31:55.900Z,13.18
2023-02-03T11:47:08.914Z,7.55
2023-02-03T12:02:48.375Z,8.77
2023-02-03T12:18:12.802Z,8.55
2023-02-03T12:33:30.828Z,5.47
2023-02-03T12:48:49.689Z,3.57
2023-02-03T13:04:01.066Z,4.88
2023-02-03T13:19:11.177Z,3.88
2023-02-03T13:34:50.799Z,3.42
2023-02-03T13:50:01.425Z,3.95
2023-02-03T14:05:04.351Z,3.72
2023-02-03T14:20:28.964Z,6.45
2023-02-03T14:35:35.228Z,9.02
2023-02-03T14:51:03.416Z,5.00
2023-02-03T15:06:06.231Z,15.37
2023-02-03T15:21:19.192Z,17.20
2023-02-03T15:36:35.546Z,13.50
2023-02-03T15:51:47.013Z,13.68
2023-02-03T16:06:51.180Z,15.30
2023-02-03T16:21:56.010Z,17.00
2023-02-03T16:37:16.377Z,13.35
2023-02-03T16:52:18.381Z,15.25
2023-02-03T17:07:20.318Z,21.45
2023-02-03T17:22:22.301Z,18.52
2023-02-03T17:37:24.348Z,21.52
2023-02-03T18:07:46.130Z,25.70
2023-02-03T18:22:48.160Z,26.48
2023-02-03T18:37:51.830Z,24.25
2023-02-03T18:52:55.348Z,22.88
2023-02-03T19:07:57.426Z,27.70
2023-02-03T19:22:59.438Z,23.63
2023-02-03T19:38:01.913Z,20.50
2023-02-03T19:53:04.482Z,20.27
2023-02-03T20:08:06.846Z,27.48
2023-02-03T20:23:08.905Z,22.20
2023-02-03T20:38:10.927Z,20.95
2023-02-03T20:53:24.261Z,12.32
2023-02-03T21:08:27.612Z,13.73
2023-02-03T21:23:40.404Z,13.85
2023-02-03T21:38:42.735Z,15.60
2023-02-03T21:53:54.461Z,13.30
2023-02-03T22:08:58.349Z,15.70
2023-02-03T22:24:00.449Z,10.90
2023-02-03T22:39:02.397Z,16.15
2023-02-03T22:54:04.986Z,12.93
2023-02-03T23:09:06.968Z,10.52
2023-02-03T23:24:08.940Z,7.35
2023-02-03T23:39:11.064Z,6.82
2023-02-03T23:54:13.041Z,3.50
